createdAt,value
2018-02-03T00:00:10.342Z,63.30
2018-02-03T00:02:37.873Z,62.59
2018-02-03T00:05:05.378Z,62.29
2018-02-03T00:07:32.921Z,61.90
2018-02-03T00:10:00.904Z,61.80
2018-02-03T00:12:28.485Z,61.31
2018-02-03T00:14:56.116Z,61.71
2018-02-03T00:17:23.699Z,62.46
2018-02-03T00:19:51.234Z,62.12
2018-02-03T00:22:18.751Z,62.18
2018-02-03T00:24:46.297Z,63.24
2018-02-03T00:27:13.818Z,62.24
2018-02-03T00:29:41.609Z,61.90
2018-02-03T00:32:09.147Z,61.35
2018-02-03T00:34:36.660Z,61.98
2018-02-03T00:37:04.506Z,61.46
2018-02-03T00:39:32.016Z,61.30
2018-02-03T00:41:59.525Z,61.17
2018-02-03T00:44:27.057Z,61.66
2018-02-03T00:46:54.626Z,61.16
2018-02-03T00:49:22.245Z,61.23
2018-02-03T00:51:49.757Z,61.61
2018-02-03T00:54:17.262Z,62.01
2018-02-03T00:56:44.801Z,62.60
2018-02-03T00:59:12.304Z,62.98
2018-02-03T01:01:40.238Z,63.21
2018-02-03T01:04:07.775Z,64.14
2018-02-03T01:06:35.285Z,64.18
2018-02-03T01:09:02.830Z,64.67
2018-02-03T01:11:30.334Z,64.68
2018-02-03T01:13:58.069Z,65.01
2018-02-03T01:16:25.573Z,64.70
2018-02-03T01:18:53.077Z,64.43
2018-02-03T01:21:20.611Z,64.51
2018-02-03T01:23:48.118Z,64.22
2018-02-03T01:26:15.665Z,64.12
2018-02-03T01:28:43.165Z,64.74
2018-02-03T01:31:10.673Z,64.94
2018-02-03T01:33:38.207Z,64.02
2018-02-03T01:36:05.714Z,64.16
2018-02-03T01:38:33.253Z,64.10
2018-02-03T01:41:00.766Z,63.82
2018-02-03T01:43:28.274Z,63.59
2018-02-03T01:45:55.808Z,64.06
2018-02-03T01:48:23.313Z,64.08
2018-02-03T01:50:51.416Z,63.88
2018-02-03T01:53:18.941Z,64.42
2018-02-03T01:55:46.458Z,64.79
2018-02-03T01:58:14.065Z,65.26
2018-02-03T02:00:41.619Z,66.09
2018-02-03T02:03:09.323Z,66.09
2018-02-03T02:05:36.836Z,67.06
2018-02-03T02:08:04.338Z,67.21
2018-02-03T02:10:31.882Z,67.52
2018-02-03T02:12:59.429Z,67.37
2018-02-03T02:15:26.982Z,67.40
2018-02-03T02:17:54.490Z,67.49
2018-02-03T02:20:21.996Z,67.28
2018-02-03T02:22:49.533Z,67.62
2018-02-03T02:25:17.041Z,67.76
2018-02-03T02:27:44.591Z,67.54
2018-02-03T02:30:12.098Z,67.54
2018-02-03T02:32:39.610Z,67.35
2018-02-03T02:35:07.142Z,67.06
2018-02-03T02:37:34.649Z,66.75
2018-02-03T02:40:02.202Z,66.69
2018-02-03T02:42:29.704Z,66.57
2018-02-03T02:44:57.209Z,66.31
2018-02-03T02:47:24.761Z,66.12
2018-02-03T02:49:52.267Z,66.37
2018-02-03T02:52:20.933Z,66.03
2018-02-03T02:54:48.437Z,65.55
2018-02-03T02:57:15.945Z,65.33
2018-02-03T02:59:43.484Z,65.66
2018-02-03T03:02:10.993Z,65.48
2018-02-03T03:04:38.905Z,65.18
2018-02-03T03:07:06.417Z,65.02
2018-02-03T03:09:33.925Z,64.96
2018-02-03T03:12:01.470Z,64.71
2018-02-03T03:14:28.982Z,64.46
2018-02-03T03:16:56.827Z,64.56
2018-02-03T03:19:24.334Z,64.27
2018-02-03T03:21:51.837Z,64.10
2018-02-03T03:24:19.373Z,64.25
2018-02-03T03:26:46.877Z,64.40
2018-02-03T03:29:14.418Z,64.63
2018-02-03T03:31:41.931Z,64.75
2018-02-03T03:34:09.433Z,64.22
2018-02-03T03:36:36.965Z,64.25
2018-02-03T03:39:04.474Z,63.90
2018-02-03T03:41:32.397Z,63.54
2018-02-03T03:43:59.906Z,64.11
2018-02-03T03:46:27.414Z,64.73
2018-02-03T03:48:54.950Z,64.44
2018-02-03T03:51:22.458Z,64.09
2018-02-03T03:53:50.294Z,63.92
2018-02-03T03:56:17.801Z,63.88
2018-02-03T03:58:45.306Z,64.08
2018-02-03T04:01:12.850Z,63.82
2018-02-03T04:03:40.357Z,63.71
2018-02-03T04:06:08.097Z,63.55
2018-02-03T04:08:35.606Z,63.92
2018-02-03T04:11:03.110Z,64.09
2018-02-03T04:13:30.641Z,64.20
2018-02-03T04:15:58.149Z,64.41
2018-02-03T04:18:25.912Z,64.79
2018-02-03T04:20:53.412Z,64.57
2018-02-03T04:23:20.909Z,64.40
2018-02-03T04:25:48.442Z,64.40
2018-02-03T04:28:15.954Z,64.50
2018-02-03T04:30:43.770Z,64.54
2018-02-03T04:33:11.265Z,64.44
2018-02-03T04:35:38.789Z,64.22
2018-02-03T04:38:06.325Z,64.67
2018-02-03T04:40:33.841Z,64.14
2018-02-03T04:43:01.391Z,64.00
2018-02-03T04:45:28.894Z,64.00
2018-02-03T04:47:56.429Z,64.35
2018-02-03T04:50:23.965Z,64.06
2018-02-03T04:52:51.473Z,64.82
2018-02-03T04:55:19.301Z,65.12
2018-02-03T04:57:46.809Z,65.06
2018-02-03T05:00:14.358Z,65.03
2018-02-03T05:02:41.884Z,64.86
2018-02-03T05:05:09.395Z,65.11
2018-02-03T05:07:37.578Z,65.14
2018-02-03T05:10:05.081Z,65.13
2018-02-03T05:12:32.584Z,65.20
2018-02-03T05:15:00.133Z,65.51
2018-02-03T05:17:27.637Z,65.78
2018-02-03T05:19:55.374Z,66.60
2018-02-03T05:22:22.898Z,66.51
2018-02-03T05:24:50.406Z,66.54
2018-02-03T05:27:17.937Z,66.25
2018-02-03T05:29:45.444Z,66.55
2018-02-03T05:32:13.001Z,66.52
2018-02-03T05:34:40.509Z,67.21
2018-02-03T05:37:08.077Z,67.51
2018-02-03T05:39:35.621Z,68.08
2018-02-03T05:42:03.124Z,68.68
2018-02-03T05:44:30.960Z,68.29
2018-02-03T05:46:58.457Z,68.04
2018-02-03T05:49:25.965Z,68.06
2018-02-03T05:51:53.509Z,67.69
2018-02-03T05:54:21.014Z,67.62
2018-02-03T05:56:48.709Z,67.56
2018-02-03T05:59:16.208Z,67.43
2018-02-03T06:01:43.749Z,67.13
2018-02-03T06:04:11.294Z,66.74
2018-02-03T06:06:38.793Z,66.69
2018-02-03T06:09:06.452Z,66.72
2018-02-03T06:11:33.977Z,65.92
2018-02-03T06:14:01.529Z,65.72
2018-02-03T06:16:29.083Z,65.58
2018-02-03T06:18:56.586Z,65.70
2018-02-03T06:21:24.145Z,66.10
2018-02-03T06:23:51.669Z,66.02
2018-02-03T06:26:19.175Z,66.07
2018-02-03T06:28:46.727Z,65.96
2018-02-03T06:31:14.229Z,66.12
2018-02-03T06:33:41.840Z,65.73
2018-02-03T06:36:09.370Z,65.45
2018-02-03T06:38:36.874Z,65.45
2018-02-03T06:41:04.417Z,64.98
2018-02-03T06:43:31.921Z,64.77
2018-02-03T06:45:59.655Z,64.63
2018-02-03T06:48:27.169Z,65.06
2018-02-03T06:50:54.675Z,64.68
2018-02-03T06:53:22.219Z,64.70
2018-02-03T06:55:49.731Z,64.30
2018-02-03T06:58:17.550Z,64.31
2018-02-03T07:00:45.057Z,63.84
2018-02-03T07:03:12.688Z,63.35
2018-02-03T07:05:40.229Z,63.35
2018-02-03T07:08:07.744Z,63.64
2018-02-03T07:10:35.444Z,63.14
2018-02-03T07:13:02.950Z,63.25
2018-02-03T07:15:30.463Z,63.07
2018-02-03T07:17:57.990Z,63.13
2018-02-03T07:20:25.517Z,63.14
2018-02-03T07:22:53.229Z,63.63
2018-02-03T07:25:20.738Z,63.49
2018-02-03T07:27:48.241Z,63.05
2018-02-03T07:30:15.794Z,62.95
2018-02-03T07:32:43.305Z,62.86
2018-02-03T07:35:10.857Z,63.16
2018-02-03T07:37:38.356Z,62.89
2018-02-03T07:40:05.859Z,62.76
2018-02-03T07:42:33.390Z,63.17
2018-02-03T07:45:00.898Z,62.84
2018-02-03T07:47:28.459Z,62.66
2018-02-03T07:49:55.970Z,62.46
2018-02-03T07:52:23.629Z,62.35
2018-02-03T07:54:51.165Z,62.24
2018-02-03T07:57:18.673Z,61.94
2018-02-03T07:59:46.436Z,62.95
2018-02-03T08:02:13.953Z,62.26
2018-02-03T08:04:41.457Z,62.24
2018-02-03T08:07:08.998Z,62.33
2018-02-03T08:09:36.511Z,61.75
2018-02-03T08:12:04.250Z,61.63
2018-02-03T08:14:31.793Z,60.94
2018-02-03T08:16:59.301Z,60.74
2018-02-03T08:19:26.835Z,60.66
2018-02-03T08:21:54.385Z,60.77
2018-02-03T08:24:22.010Z,61.12
2018-02-03T08:26:49.518Z,60.57
2018-02-03T08:29:17.022Z,60.78
2018-02-03T08:31:45.016Z,61.26
2018-02-03T08:34:12.521Z,61.10
2018-02-03T08:36:40.205Z,61.55
2018-02-03T08:39:07.722Z,61.49
2018-02-03T08:41:35.240Z,61.59
2018-02-03T08:44:02.785Z,61.23
2018-02-03T08:46:31.596Z,61.66
2018-02-03T08:49:00.053Z,61.03
2018-02-03T08:51:27.561Z,61.18
2018-02-03T08:53:55.107Z,60.69
2018-02-03T08:56:22.794Z,60.52
2018-02-03T08:58:50.621Z,60.52
2018-02-03T09:01:18.282Z,60.25
2018-02-03T09:03:46.661Z,61.69
2018-02-03T09:06:14.225Z,60.92
2018-02-03T09:08:41.803Z,60.51
2018-02-03T09:11:09.309Z,60.58
2018-02-03T09:13:37.203Z,60.96
2018-02-03T09:16:04.713Z,60.13
2018-02-03T09:18:32.227Z,59.96
2018-02-03T09:20:59.930Z,60.23
2018-02-03T09:23:27.446Z,60.10
2018-02-03T09:25:54.963Z,58.96
2018-02-03T09:28:22.764Z,59.24
2018-02-03T09:30:50.359Z,58.32
2018-02-03T09:33:17.880Z,58.14
2018-02-03T09:35:45.750Z,57.96
2018-02-03T09:38:13.306Z,57.65
2018-02-03T09:40:40.834Z,57.31
2018-02-03T09:43:08.410Z,56.87
2018-02-03T09:45:35.939Z,55.65
2018-02-03T09:48:03.457Z,55.33
2018-02-03T09:50:31.026Z,54.35
2018-02-03T09:52:58.541Z,54.56
2018-02-03T09:55:26.117Z,54.12
2018-02-03T09:57:53.696Z,54.40
2018-02-03T10:00:21.441Z,53.53
2018-02-03T10:02:49.097Z,52.00
2018-02-03T10:05:16.888Z,51.82
2018-02-03T10:07:44.835Z,51.97
2018-02-03T10:10:12.546Z,50.94
2018-02-03T10:12:40.231Z,51.30
2018-02-03T10:15:07.801Z,51.45
2018-02-03T10:17:35.481Z,52.06
2018-02-03T10:20:03.348Z,51.61
2018-02-03T10:22:31.123Z,52.19
2018-02-03T10:24:58.711Z,51.89
2018-02-03T10:27:26.639Z,51.28
2018-02-03T10:29:54.403Z,51.39
2018-02-03T10:32:22.875Z,50.58
2018-02-03T10:34:50.648Z,49.96
2018-02-03T10:37:18.215Z,48.45
2018-02-03T10:39:45.869Z,48.10
2018-02-03T10:42:13.728Z,49.03
2018-02-03T10:44:41.295Z,49.27
2018-02-03T10:47:09.263Z,49.05
2018-02-03T10:49:36.923Z,48.25
2018-02-03T10:52:04.450Z,47.91
2018-02-03T10:54:32.247Z,47.48
2018-02-03T10:56:59.866Z,46.62
2018-02-03T10:59:27.551Z,46.92
2018-02-03T11:01:55.437Z,46.46
2018-02-03T11:04:22.965Z,44.81
2018-02-03T11:06:50.750Z,44.68
2018-02-03T11:09:18.394Z,46.32
2018-02-03T11:11:46.098Z,46.25
2018-02-03T11:20:17.832Z,46.55
2018-02-03T11:22:45.406Z,46.86
2018-02-03T11:25:13.256Z,45.68
2018-02-03T11:27:40.773Z,46.67
2018-02-03T11:30:08.439Z,46.10
2018-02-03T11:32:36.140Z,46.83
2018-02-03T11:35:03.653Z,46.18
2018-02-03T11:37:31.668Z,45.77
2018-02-03T11:39:59.197Z,44.28
2018-02-03T11:42:27.250Z,44.63
2018-02-03T11:44:55.037Z,45.53
2018-02-03T11:47:22.712Z,46.22
2018-02-03T11:49:50.659Z,47.34
2018-02-03T11:52:18.454Z,47.76
2018-02-03T11:54:46.117Z,48.47
2018-02-03T11:57:14.785Z,48.83
2018-02-03T11:59:42.670Z,49.74
2018-02-03T12:02:10.740Z,49.48
2018-02-03T12:04:38.402Z,49.10
2018-02-03T12:07:06.271Z,49.10
2018-02-03T12:09:33.853Z,48.88
2018-02-03T12:12:01.570Z,48.70
2018-02-03T12:14:29.459Z,48.67
2018-02-03T12:16:57.091Z,48.41
2018-02-03T12:19:24.651Z,48.17
2018-02-03T12:21:52.208Z,47.75
2018-02-03T12:24:19.794Z,48.12
2018-02-03T12:26:47.838Z,47.93
2018-02-03T12:29:15.435Z,48.08
2018-02-03T12:31:42.971Z,47.92
2018-02-03T12:34:10.508Z,47.90
2018-02-03T12:36:38.303Z,48.40
2018-02-03T12:39:06.074Z,48.10
2018-02-03T12:41:33.840Z,48.14
2018-02-03T12:44:01.362Z,47.55
2018-02-03T12:46:29.159Z,47.66
2018-02-03T12:48:56.802Z,47.68
2018-02-03T12:51:24.690Z,47.87
2018-02-03T12:53:52.441Z,48.37
2018-02-03T12:56:19.954Z,47.76
2018-02-03T12:58:47.486Z,47.55
2018-02-03T13:01:15.124Z,47.12
2018-02-03T13:03:42.714Z,46.21
2018-02-03T13:06:10.349Z,47.46
2018-02-03T13:08:37.915Z,46.08
2018-02-03T13:11:05.458Z,45.57
2018-02-03T13:13:33.027Z,43.92
2018-02-03T13:16:00.593Z,45.08
2018-02-03T13:18:28.106Z,45.08
2018-02-03T13:20:55.608Z,44.96
2018-02-03T13:23:23.233Z,45.84
2018-02-03T13:25:50.793Z,45.78
2018-02-03T13:28:18.472Z,46.68
2018-02-03T13:30:45.982Z,46.57
2018-02-03T13:33:13.605Z,47.18
2018-02-03T13:35:41.170Z,47.01
2018-02-03T18:12:36.445Z,58.21
2018-02-03T18:15:04.154Z,58.49
2018-02-03T18:17:31.814Z,59.36
2018-02-03T18:19:59.681Z,60.19
2018-02-03T18:22:27.225Z,60.61
2018-02-03T18:24:54.739Z,60.06
2018-02-03T18:27:22.548Z,59.84
2018-02-03T18:29:50.110Z,60.86
2018-02-03T18:32:17.885Z,60.59
2018-02-03T18:34:45.473Z,60.00
2018-02-03T18:37:13.415Z,58.97
2018-02-03T18:39:41.074Z,58.89
2018-02-03T18:42:09.045Z,58.54
2018-02-03T18:44:36.910Z,58.45
2018-02-03T18:47:04.777Z,58.27
2018-02-03T18:49:32.950Z,58.40
2018-02-03T18:52:00.818Z,58.27
2018-02-03T18:54:28.889Z,58.09
2018-02-03T18:56:56.755Z,58.45
2018-02-03T18:59:24.504Z,58.21
2018-02-03T19:01:52.781Z,58.16
2018-02-03T19:04:20.458Z,58.55
2018-02-03T19:06:48.526Z,58.49
2018-02-03T19:09:16.394Z,58.70
2018-02-03T19:11:44.260Z,58.30
2018-02-03T19:14:11.913Z,58.09
2018-02-03T19:16:39.655Z,58.14
2018-02-03T19:19:07.556Z,58.27
2018-02-03T19:21:35.363Z,58.30
2018-02-03T19:24:02.985Z,58.37
2018-02-03T19:26:31.356Z,58.51
2018-02-03T19:28:59.188Z,58.59
2018-02-03T19:31:26.987Z,58.92
2018-02-03T19:33:54.685Z,59.32
2018-02-03T19:36:22.415Z,59.63
2018-02-03T19:38:49.969Z,59.36
2018-02-03T19:41:18.043Z,59.56
2018-02-03T19:43:45.705Z,59.66
2018-02-03T19:46:13.486Z,59.61
2018-02-03T19:48:41.235Z,59.77
2018-02-03T19:51:09.241Z,59.56
2018-02-03T19:53:36.956Z,59.72
2018-02-03T19:56:04.730Z,59.33
2018-02-03T19:58:32.493Z,59.27
2018-02-03T20:01:00.229Z,59.20
2018-02-03T20:03:28.337Z,58.97
2018-02-03T20:05:56.199Z,58.92
2018-02-03T20:08:23.859Z,58.83
2018-02-03T20:10:51.622Z,59.43
2018-02-03T20:13:20.668Z,59.99
2018-02-03T20:15:48.756Z,59.84
2018-02-03T20:18:16.756Z,60.78
2018-02-03T20:20:44.623Z,60.71
2018-02-03T20:23:12.386Z,61.12
2018-02-03T20:25:40.252Z,61.02
2018-02-03T20:28:08.239Z,60.92
2018-02-03T20:30:36.072Z,60.79
2018-02-03T20:33:03.727Z,61.01
2018-02-03T20:35:31.513Z,61.05
2018-02-03T20:37:59.198Z,60.49
2018-02-03T20:40:27.189Z,59.77
2018-02-03T20:42:54.864Z,59.86
2018-02-03T20:45:22.791Z,59.89
2018-02-03T20:47:50.581Z,60.24
2018-02-03T20:50:18.340Z,60.42
2018-02-03T20:52:46.189Z,60.75
2018-02-03T20:55:13.773Z,60.49
2018-02-03T20:57:41.599Z,60.21
2018-02-03T21:00:09.238Z,59.99
2018-02-03T21:02:36.875Z,60.00
2018-02-03T21:05:04.969Z,60.12
2018-02-03T21:07:32.546Z,60.25
2018-02-03T21:10:00.202Z,60.08
2018-02-03T21:12:28.179Z,59.95
2018-02-03T21:14:55.931Z,59.90
2018-02-03T21:17:23.911Z,59.94
2018-02-03T21:19:51.733Z,60.13
2018-02-03T21:22:19.399Z,60.32
2018-02-03T21:24:47.107Z,60.13
2018-02-03T21:27:14.799Z,60.29
2018-02-03T21:29:42.476Z,60.28
2018-02-03T21:32:10.089Z,60.37
2018-02-03T21:34:37.747Z,60.11
2018-02-03T21:37:05.399Z,60.05
2018-02-03T21:39:33.082Z,60.07
2018-02-03T21:42:00.816Z,60.06
2018-02-03T21:44:28.458Z,60.03
2018-02-03T21:46:56.150Z,60.15
2018-02-03T21:49:23.914Z,59.90
2018-02-03T21:51:51.696Z,60.32
2018-02-03T21:54:19.666Z,59.85
2018-02-03T21:56:47.311Z,59.59
2018-02-03T21:59:14.930Z,59.57
2018-02-03T22:01:42.620Z,59.92
2018-02-03T22:04:10.200Z,59.66
2018-02-03T22:06:38.218Z,59.59
2018-02-03T22:09:06.037Z,59.68
2018-02-03T22:11:33.622Z,59.69
2018-02-03T22:14:01.196Z,59.26
2018-02-03T22:16:28.765Z,59.88
2018-02-03T22:18:56.501Z,60.49
2018-02-03T22:21:24.138Z,60.57
2018-02-03T22:23:51.725Z,60.57
2018-02-03T22:26:19.311Z,60.63
2018-02-03T22:28:46.833Z,60.40
2018-02-03T22:31:14.608Z,60.20
2018-02-03T22:33:42.201Z,60.53
2018-02-03T22:36:09.797Z,60.40
2018-02-03T22:38:37.340Z,60.58
2018-02-03T22:41:04.870Z,61.00
2018-02-03T22:43:32.703Z,61.45
2018-02-03T22:46:00.244Z,61.19
2018-02-03T22:48:27.761Z,60.84
2018-02-03T22:50:55.317Z,60.65
2018-02-03T22:53:22.826Z,60.00
2018-02-03T22:55:50.479Z,60.78
2018-02-03T22:58:17.997Z,60.79
2018-02-03T23:00:51.167Z,60.98
2018-02-03T23:03:18.688Z,61.23
2018-02-03T23:05:46.205Z,61.18
2018-02-03T23:08:13.740Z,61.78
2018-02-03T23:10:41.253Z,61.14
2018-02-03T23:13:09.012Z,61.04
2018-02-03T23:15:36.534Z,61.03
2018-02-03T23:18:04.154Z,61.54
2018-02-03T23:20:31.694Z,61.75
2018-02-03T23:22:59.215Z,61.92
2018-02-03T23:25:26.768Z,62.52
2018-02-03T23:27:54.302Z,62.86
2018-02-03T23:30:21.821Z,62.19
2018-02-03T23:32:50.261Z,62.13
2018-02-03T23:35:17.770Z,61.84
2018-02-03T23:37:45.329Z,61.62
2018-02-03T23:40:12.869Z,61.58
2018-02-03T23:42:40.382Z,61.15
2018-02-03T23:45:07.925Z,61.53
2018-02-03T23:47:35.433Z,61.49
2018-02-03T23:50:03.221Z,61.66
2018-02-03T23:52:31.722Z,61.90
2018-02-03T23:54:59.554Z,61.98
2018-02-03T23:57:27.120Z,61.94
2018-02-03T23:59:54.645Z,61.94
